Time;durP1;ratioP1;P1;durP2;ratioP2;P2;SDS_P1;SDS_P2;PMS_P1;PMS_P2;Temp;Humidity;BMP_temperature;BMP_pressure;BME280_temperature;BME280_humidity;BME280_pressure;Samples;Min_cycle;Max_cycle;Signal;HPM_P1;HPM_P2
2023/07/21 00:02:21;;;;;;;2.65;1.70;;;;;;;;;;4943973;28;98102;-80
2023/07/21 00:08:53;;;;;;;3.85;1.60;;;;;;;;;;4951530;28;98326;-80
2023/07/21 00:11:20;;;;;;;3.33;1.67;;;;;;;;;;4961590;28;98438;-79
2023/07/21 00:13:46;;;;;;;3.92;1.70;;;;;;;;;;4952005;28;99535;-79
2023/07/21 00:16:13;;;;;;;5.95;1.67;;;;;;;;;;4943479;28;98219;-80
2023/07/21 00:18:41;;;;;;;2.60;1.42;;;;;;;;;;4935848;28;101356;-80
2023/07/21 00:21:09;;;;;;;3.60;1.58;;;;;;;;;;4960281;28;98955;-80
2023/07/21 00:23:36;;;;;;;5.85;1.95;;;;;;;;;;4960813;28;98419;-80
2023/07/21 00:26:02;;;;;;;3.83;1.60;;;;;;;;;;4972637;28;99281;-80
2023/07/21 00:28:29;;;;;;;4.28;1.83;;;;;;;;;;4942886;28;101781;-80
2023/07/21 00:30:55;;;;;;;4.28;1.88;;;;;;;;;;4961450;28;97389;-80
2023/07/21 00:33:25;;;;;;;4.30;1.50;;;;;;;;;;4951490;28;98609;-80
2023/07/21 00:35:52;;;;;;;3.53;1.90;;;;;;;;;;4945795;28;101649;-80
2023/07/21 01:06:30;;;;;;;4.53;1.70;;;;;;;;;;4950392;28;97570;-80
2023/07/21 01:08:57;;;;;;;9.70;1.50;;;;;;;;;;4930628;28;100710;-80
2023/07/21 01:11:24;;;;;;;3.58;1.52;;;;;;;;;;4931808;28;99355;-80
2023/07/21 01:13:54;;;;;;;2.70;1.60;;;;;;;;;;4936661;28;99056;-80
2023/07/21 01:16:22;;;;;;;2.78;1.50;;;;;;;;;;4923012;28;102076;-80
2023/07/21 01:18:50;;;;;;;2.85;1.65;;;;;;;;;;4912509;28;101661;-80
2023/07/21 01:21:23;;;;;;;3.22;1.75;;;;;;;;;;4941938;28;98350;-80
2023/07/21 01:23:58;;;;;;;3.60;1.50;;;;;;;;;;4922874;28;100998;-80
2023/07/21 01:26:28;;;;;;;2.65;1.40;;;;;;;;;;4944528;28;99027;-80
2023/07/21 01:28:55;;;;;;;6.57;1.58;;;;;;;;;;4934352;28;98222;-80
2023/07/21 01:31:23;;;;;;;3.35;1.60;;;;;;;;;;4938989;28;100789;-80
2023/07/21 01:33:51;;;;;;;3.55;1.63;;;;;;;;;;4947513;28;98161;-79
2023/07/21 01:36:17;;;;;;;3.17;1.50;;;;;;;;;;4968341;28;99592;-80
2023/07/21 01:38:45;;;;;;;4.75;1.77;;;;;;;;;;4922037;28;102577;-80
2023/07/21 01:41:12;;;;;;;3.17;1.67;;;;;;;;;;4940774;28;98095;-80
2023/07/21 01:43:39;;;;;;;5.35;1.73;;;;;;;;;;4944453;28;101185;-80
2023/07/21 01:46:08;;;;;;;3.72;1.77;;;;;;;;;;4922599;28;98798;-80
2023/07/21 01:48:35;;;;;;;3.45;1.67;;;;;;;;;;4940090;28;98256;-80
2023/07/21 01:51:03;;;;;;;3.88;1.70;;;;;;;;;;4951145;28;99890;-80
2023/07/21 01:53:33;;;;;;;4.25;1.73;;;;;;;;;;4922682;28;98564;-80
2023/07/21 01:56:07;;;;;;;3.53;1.75;;;;;;;;;;4922890;28;100715;-80
2023/07/21 01:58:35;;;;;;;4.53;1.70;;;;;;;;;;4942074;28;101643;-80
2023/07/21 02:01:02;;;;;;;6.32;1.80;;;;;;;;;;4922720;28;98501;-80
2023/07/21 02:03:28;;;;;;;8.45;1.92;;;;;;;;;;4926559;28;99722;-80
2023/07/21 02:05:55;;;;;;;3.30;1.80;;;;;;;;;;4939130;28;98871;-80
2023/07/21 02:08:22;;;;;;;4.10;1.60;;;;;;;;;;4923290;28;98362;-80
2023/07/21 02:10:48;;;;;;;5.07;1.80;;;;;;;;;;4922345;28;100763;-79
2023/07/21 02:13:35;;;;;;;4.57;1.85;;;;;;;;;;4956148;28;100240;-80
2023/07/21 02:16:02;;;;;;;4.05;1.80;;;;;;;;;;4931656;28;98572;-80
2023/07/21 02:18:29;;;;;;;5.90;2.00;;;;;;;;;;4926292;28;101924;-80
2023/07/21 02:21:00;;;;;;;8.88;2.22;;;;;;;;;;4938429;28;97583;-80
2023/07/21 02:23:28;;;;;;;5.18;2.00;;;;;;;;;;4922357;28;99099;-81
2023/07/21 02:25:56;;;;;;;;;;;;;;;;;;4930164;28;102107;-80
2023/07/21 02:28:22;;;;;;;3.53;1.70;;;;;;;;;;4923221;28;99383;-80
2023/07/21 02:31:02;;;;;;;2.88;1.70;;;;;;;;;;4938375;28;101770;-80
2023/07/21 02:33:29;;;;;;;2.42;1.60;;;;;;;;;;4952425;28;99127;-80
2023/07/21 02:35:56;;;;;;;3.83;1.98;;;;;;;;;;4947947;28;98404;-80
2023/07/21 02:38:22;;;;;;;4.03;1.80;;;;;;;;;;4939157;28;99090;-80
2023/07/21 02:40:49;;;;;;;3.55;1.77;;;;;;;;;;4941316;28;98195;-80
2023/07/21 02:43:17;;;;;;;3.75;1.80;;;;;;;;;;4941455;28;101043;-80
2023/07/21 02:45:52;;;;;;;2.83;1.75;;;;;;;;;;4936621;28;98099;-79
2023/07/21 02:48:19;;;;;;;6.15;1.90;;;;;;;;;;4916015;28;99930;-80
2023/07/21 02:50:47;;;;;;;3.47;1.77;;;;;;;;;;4937744;28;101137;-80
2023/07/21 02:53:14;;;;;;;3.78;1.60;;;;;;;;;;4938513;28;99450;-80
2023/07/21 02:55:42;;;;;;;5.75;1.90;;;;;;;;;;4921724;28;98710;-81
2023/07/21 02:58:09;;;;;;;4.88;1.50;;;;;;;;;;4944447;28;101386;-80
2023/07/21 03:00:36;;;;;;;5.03;1.92;;;;;;;;;;4936503;28;98766;-80
2023/07/21 03:03:16;;;;;;;2.10;1.40;;;;;;;;;;4923326;28;100688;-80
2023/07/21 03:05:46;;;;;;;3.33;1.80;;;;;;;;;;4937037;28;99130;-80
2023/07/21 03:08:14;;;;;;;4.18;1.80;;;;;;;;;;4921779;28;98609;-81
2023/07/21 03:10:40;;;;;;;3.58;1.70;;;;;;;;;;4930531;28;101751;-81
2023/07/21 03:13:07;;;;;;;4.13;1.75;;;;;;;;;;4946715;28;100954;-80
2023/07/21 03:15:36;;;;;;;3.58;1.92;;;;;;;;;;4938912;28;98590;-80
2023/07/21 03:18:06;;;;;;;4.78;1.80;;;;;;;;;;4923858;28;98963;-80
2023/07/21 03:20:42;;;;;;;4.45;1.80;;;;;;;;;;4921408;28;98967;-80
2023/07/21 03:23:11;;;;;;;3.13;1.70;;;;;;;;;;4921690;28;100764;-80
2023/07/21 03:25:42;;;;;;;4.75;1.77;;;;;;;;;;4920772;28;101247;-80
2023/07/21 03:28:09;;;;;;;3.70;1.80;;;;;;;;;;4927483;28;98260;-80
2023/07/21 03:30:40;;;;;;;5.38;1.92;;;;;;;;;;4945627;28;98841;-80
2023/07/21 03:33:17;;;;;;;5.63;2.05;;;;;;;;;;4939562;28;101459;-81
2023/07/21 03:36:03;;;;;;;6.97;2.00;;;;;;;;;;4956226;28;97914;-81
2023/07/21 03:38:35;;;;;;;5.47;2.00;;;;;;;;;;4927616;28;100576;-80
2023/07/21 03:41:06;;;;;;;8.77;2.40;;;;;;;;;;4946656;28;101227;-80
2023/07/21 03:43:35;;;;;;;9.90;2.20;;;;;;;;;;4949652;28;101100;-79
2023/07/21 03:46:03;;;;;;;10.80;2.30;;;;;;;;;;4944235;28;100203;-80
2023/07/21 03:48:34;;;;;;;6.03;2.10;;;;;;;;;;4927828;28;98651;-80
2023/07/21 03:51:05;;;;;;;6.55;1.80;;;;;;;;;;4927445;28;100729;-80
2023/07/21 03:53:37;;;;;;;5.80;1.60;;;;;;;;;;4943036;28;99787;-80
2023/07/21 03:56:07;;;;;;;3.75;1.75;;;;;;;;;;4951192;28;98681;-80
2023/07/21 03:58:34;;;;;;;7.20;2.15;;;;;;;;;;4949310;28;100504;-80
2023/07/21 04:01:00;;;;;;;3.85;1.90;;;;;;;;;;4927234;28;98620;-80
2023/07/21 04:03:27;;;;;;;4.00;1.80;;;;;;;;;;4929784;28;98199;-80
2023/07/21 04:05:55;;;;;;;5.55;2.08;;;;;;;;;;4921902;28;101642;-80
2023/07/21 04:08:21;;;;;;;3.55;2.10;;;;;;;;;;4931098;28;98893;-80
2023/07/21 04:10:48;;;;;;;2.95;1.80;;;;;;;;;;4926910;28;101826;-80
2023/07/21 04:13:14;;;;;;;2.88;1.80;;;;;;;;;;4936695;28;99034;-80
2023/07/21 04:15:41;;;;;;;5.75;1.88;;;;;;;;;;4907676;28;98676;-80
2023/07/21 04:18:07;;;;;;;5.78;1.77;;;;;;;;;;4924821;28;98517;-80
2023/07/21 04:20:34;;;;;;;4.57;1.88;;;;;;;;;;4922799;28;101349;-80
2023/07/21 04:23:02;;;;;;;3.47;1.80;;;;;;;;;;4923148;28;98235;-80
2023/07/21 04:25:28;;;;;;;;;;;;;;;;;;4924140;28;101124;-80
2023/07/21 04:27:55;;;;;;;4.18;1.88;;;;;;;;;;4908900;28;98220;-80
2023/07/21 04:30:22;;;;;;;4.40;2.00;;;;;;;;;;4923302;28;98512;-80
2023/07/21 04:32:50;;;;;;;3.45;1.80;;;;;;;;;;4931041;28;102202;-80
2023/07/21 04:35:16;;;;;;;5.53;2.10;;;;;;;;;;4916431;28;98234;-80
2023/07/21 04:37:44;;;;;;;4.65;1.88;;;;;;;;;;4923139;28;101486;-80
2023/07/21 04:40:13;;;;;;;5.30;1.90;;;;;;;;;;4920632;28;101492;-80
2023/07/21 04:42:40;;;;;;;4.10;1.63;;;;;;;;;;4937446;28;98246;-80
2023/07/21 04:45:11;;;;;;;4.10;1.80;;;;;;;;;;4921865;28;100675;-80
2023/07/21 04:47:43;;;;;;;2.55;1.65;;;;;;;;;;4906959;28;101235;-81
2023/07/21 04:50:17;;;;;;;4.97;2.05;;;;;;;;;;4920532;28;100769;-81
2023/07/21 04:52:44;;;;;;;5.95;2.10;;;;;;;;;;4919377;28;100819;-81
2023/07/21 04:55:10;;;;;;;3.58;1.70;;;;;;;;;;4919555;28;100054;-81
2023/07/21 04:57:37;;;;;;;5.57;1.90;;;;;;;;;;4914686;28;101386;-80
2023/07/21 05:00:09;;;;;;;4.50;1.88;;;;;;;;;;4910843;28;101219;-80
2023/07/21 05:02:35;;;;;;;4.45;1.70;;;;;;;;;;4903852;28;98445;-81
2023/07/21 05:05:02;;;;;;;4.03;1.80;;;;;;;;;;4894235;28;100485;-80
2023/07/21 05:07:29;;;;;;;3.25;1.60;;;;;;;;;;4918035;28;101645;-80
2023/07/21 05:09:59;;;;;;;3.88;1.80;;;;;;;;;;4926357;28;98144;-80
2023/07/21 05:12:26;;;;;;;;;;;;;;;;;;4926731;28;101480;-80
2023/07/21 05:15:13;;;;;;;4.05;1.90;;;;;;;;;;4929289;28;97550;-80
2023/07/21 05:17:52;;;;;;;4.20;1.90;;;;;;;;;;4938701;28;100920;-80
2023/07/21 05:20:38;;;;;;;4.43;1.70;;;;;;;;;;4927348;28;101429;-81
2023/07/21 05:23:13;;;;;;;5.40;2.08;;;;;;;;;;4935063;28;99277;-80
2023/07/21 05:25:46;;;;;;;;;;;;;;;;;;4923101;28;101761;-81
2023/07/21 05:28:13;;;;;;;4.60;1.90;;;;;;;;;;4927447;28;100924;-81
2023/07/21 05:30:45;;;;;;;5.65;1.98;;;;;;;;;;4933014;28;98782;-81
2023/07/21 05:33:14;;;;;;;4.90;1.80;;;;;;;;;;4933275;28;99817;-81
2023/07/21 05:35:40;;;;;;;3.28;1.80;;;;;;;;;;4924771;28;98341;-81
2023/07/21 05:38:15;;;;;;;3.70;1.90;;;;;;;;;;4922424;28;100349;-81
2023/07/21 05:40:41;;;;;;;3.55;1.63;;;;;;;;;;4938678;28;98425;-81
2023/07/21 05:43:08;;;;;;;3.50;1.48;;;;;;;;;;4958716;28;98619;-81
2023/07/21 05:45:39;;;;;;;4.07;1.73;;;;;;;;;;4933098;28;101359;-80
2023/07/21 05:48:05;;;;;;;4.38;1.90;;;;;;;;;;4923294;28;102116;-79
2023/07/21 05:50:37;;;;;;;3.35;1.73;;;;;;;;;;4937573;28;98721;-81
2023/07/21 05:53:06;;;;;;;4.32;1.70;;;;;;;;;;4924985;28;100969;-81
2023/07/21 05:55:32;;;;;;;4.45;1.70;;;;;;;;;;4938023;28;98616;-82
2023/07/21 05:57:59;;;;;;;4.32;1.90;;;;;;;;;;4951019;28;100549;-82
2023/07/21 06:00:26;;;;;;;5.35;1.80;;;;;;;;;;4922235;28;101089;-82
2023/07/21 06:02:58;;;;;;;7.40;1.70;;;;;;;;;;4938070;28;98077;-83
2023/07/21 06:05:25;;;;;;;4.95;1.70;;;;;;;;;;4921953;28;100909;-80
2023/07/21 06:08:30;;;;;;;4.80;1.92;;;;;;;;;;4902642;28;99456;-82
2023/07/21 06:11:19;;;;;;;3.00;1.45;;;;;;;;;;4898210;28;98749;-82
2023/07/21 06:14:07;;;;;;;3.53;1.67;;;;;;;;;;4926774;28;101207;-82
2023/07/21 06:16:54;;;;;;;2.55;1.67;;;;;;;;;;4946097;28;98549;-82
2023/07/21 06:19:21;;;;;;;4.15;1.70;;;;;;;;;;4941135;28;100883;-82
2023/07/21 06:21:48;;;;;;;4.80;1.70;;;;;;;;;;4928169;28;99198;-84
2023/07/21 06:24:15;;;;;;;5.53;1.67;;;;;;;;;;4932707;28;98348;-83
2023/07/21 06:26:42;;;;;;;5.10;1.50;;;;;;;;;;4935119;28;101080;-82
2023/07/21 06:29:11;;;;;;;3.00;1.40;;;;;;;;;;4921392;28;99216;-83
2023/07/21 06:31:37;;;;;;;2.97;1.50;;;;;;;;;;4956420;28;97485;-83
2023/07/21 06:34:13;;;;;;;3.50;1.40;;;;;;;;;;4931679;28;98406;-83
2023/07/21 06:37:06;;;;;;;4.55;1.40;;;;;;;;;;4926100;28;100353;-84
2023/07/21 06:39:52;;;;;;;;;;;;;;;;;;4926619;28;99274;-83
2023/07/21 06:42:47;;;;;;;2.38;1.20;;;;;;;;;;4948674;28;101044;-83
2023/07/21 06:45:14;;;;;;;2.65;1.40;;;;;;;;;;4943592;28;98393;-83
2023/07/21 06:47:59;;;;;;;3.92;1.42;;;;;;;;;;4938927;28;98330;-82
2023/07/21 06:50:33;;;;;;;7.15;1.50;;;;;;;;;;4920760;28;99260;-82
2023/07/21 06:53:01;;;;;;;5.18;1.45;;;;;;;;;;4938915;28;98130;-84
2023/07/21 06:55:27;;;;;;;5.68;1.55;;;;;;;;;;4927623;28;100968;-83
2023/07/21 06:57:54;;;;;;;5.97;1.45;;;;;;;;;;4937325;28;100576;-82
2023/07/21 07:00:21;;;;;;;6.88;2.80;;;;;;;;;;4948856;28;98244;-82
2023/07/21 07:02:49;;;;;;;5.45;1.60;;;;;;;;;;4956503;28;98909;-80
2023/07/21 07:05:16;;;;;;;5.05;2.70;;;;;;;;;;4918515;28;99164;-81
2023/07/21 07:07:43;;;;;;;3.08;1.48;;;;;;;;;;4937236;28;99201;-80
2023/07/21 07:10:10;;;;;;;5.78;2.45;;;;;;;;;;4931262;28;99432;-80
2023/07/21 07:12:38;;;;;;;2.58;1.33;;;;;;;;;;4945069;28;98218;-80
2023/07/21 07:15:04;;;;;;;;;;;;;;;;;;4934644;28;101348;-81
2023/07/21 07:17:31;;;;;;;2.20;1.33;;;;;;;;;;4921412;28;120565;-80
2023/07/21 07:19:58;;;;;;;;;;;;;;;;;;4937757;28;98255;-81
2023/07/21 07:22:25;;;;;;;3.70;1.70;;;;;;;;;;4945034;28;122540;-80
2023/07/21 07:24:51;;;;;;;4.15;2.10;;;;;;;;;;4938298;28;99262;-81
2023/07/21 07:27:18;;;;;;;3.75;1.42;;;;;;;;;;4947231;28;98418;-81
2023/07/21 07:29:44;;;;;;;2.50;1.30;;;;;;;;;;4945005;28;102146;-83
2023/07/21 07:32:11;;;;;;;5.93;1.83;;;;;;;;;;4957574;28;98519;-82
2023/07/21 07:34:37;;;;;;;6.72;2.15;;;;;;;;;;4934693;28;100854;-82
2023/07/21 07:37:04;;;;;;;4.78;1.77;;;;;;;;;;4947553;28;98951;-82
2023/07/21 07:39:31;;;;;;;6.30;2.92;;;;;;;;;;4940169;28;98149;-82
2023/07/21 07:41:57;;;;;;;7.70;2.30;;;;;;;;;;4930394;28;100720;-79
2023/07/21 07:44:24;;;;;;;6.68;2.38;;;;;;;;;;4932333;28;101467;-79
2023/07/21 07:46:54;;;;;;;6.53;2.50;;;;;;;;;;4954435;28;101765;-79
2023/07/21 07:49:21;;;;;;;6.93;3.03;;;;;;;;;;4921612;28;98894;-79
2023/07/21 07:51:48;;;;;;;5.07;1.88;;;;;;;;;;4957485;28;98533;-79
2023/07/21 07:54:15;;;;;;;6.13;2.80;;;;;;;;;;4955532;28;99283;-79
2023/07/21 07:56:41;;;;;;;7.82;2.95;;;;;;;;;;4961117;28;99328;-78
2023/07/21 07:59:08;;;;;;;3.83;1.40;;;;;;;;;;4949965;28;98626;-79
2023/07/21 08:01:34;;;;;;;3.30;1.48;;;;;;;;;;4943200;28;101172;-80
2023/07/21 08:04:02;;;;;;;3.95;1.55;;;;;;;;;;4956904;28;98792;-80
2023/07/21 08:06:28;;;;;;;;;;;;;;;;;;4963187;28;98316;-78
2023/07/21 08:08:57;;;;;;;3.05;1.52;;;;;;;;;;4939724;28;127699;-78
2023/07/21 08:11:24;;;;;;;2.38;1.55;;;;;;;;;;4941826;28;97566;-79
2023/07/21 08:13:51;;;;;;;2.55;1.20;;;;;;;;;;4955878;28;99257;-79
2023/07/21 08:16:18;;;;;;;3.58;1.50;;;;;;;;;;4959728;28;99783;-79
2023/07/21 08:18:45;;;;;;;2.15;1.30;;;;;;;;;;4936866;28;99444;-79
2023/07/21 08:21:18;;;;;;;2.92;1.40;;;;;;;;;;4957149;28;99257;-80
2023/07/21 08:23:46;;;;;;;2.58;1.42;;;;;;;;;;4937779;28;98884;-80
2023/07/21 08:26:13;;;;;;;4.93;1.50;;;;;;;;;;4942911;28;98498;-80
2023/07/21 08:28:39;;;;;;;2.88;1.25;;;;;;;;;;4966650;28;99137;-79
2023/07/21 08:31:06;;;;;;;2.22;1.92;;;;;;;;;;4942529;28;98435;-79
2023/07/21 08:33:33;;;;;;;2.20;1.20;;;;;;;;;;4944062;28;98541;-80
2023/07/21 08:35:59;;;;;;;2.53;1.30;;;;;;;;;;4959453;28;97962;-79
2023/07/21 08:38:26;;;;;;;2.75;1.60;;;;;;;;;;4942457;28;98246;-79
2023/07/21 08:40:55;;;;;;;3.17;1.40;;;;;;;;;;4929102;28;98486;-80
2023/07/21 08:43:22;;;;;;;3.00;1.40;;;;;;;;;;4941112;28;102328;-80
2023/07/21 08:45:49;;;;;;;2.58;1.50;;;;;;;;;;4939278;28;98417;-80
2023/07/21 08:48:17;;;;;;;2.15;1.33;;;;;;;;;;4936041;28;98352;-79
2023/07/21 08:50:47;;;;;;;3.33;1.30;;;;;;;;;;4953775;28;99367;-79
2023/07/21 08:53:14;;;;;;;3.03;1.30;;;;;;;;;;4960999;28;99037;-80
2023/07/21 08:55:41;;;;;;;3.60;1.20;;;;;;;;;;4961186;28;98906;-80
2023/07/21 08:58:08;;;;;;;2.35;1.40;;;;;;;;;;4961275;28;98418;-79
2023/07/21 09:00:34;;;;;;;2.95;1.30;;;;;;;;;;4942857;28;101391;-80
2023/07/21 09:03:02;;;;;;;2.17;1.42;;;;;;;;;;4942139;28;99312;-80
2023/07/21 09:05:29;;;;;;;3.90;1.67;;;;;;;;;;4949099;28;98474;-79
2023/07/21 09:07:56;;;;;;;2.90;1.60;;;;;;;;;;4923126;28;98958;-80
2023/07/21 09:10:33;;;;;;;2.17;1.40;;;;;;;;;;4937311;28;99390;-79
2023/07/21 09:13:00;;;;;;;4.82;1.77;;;;;;;;;;4939453;28;98418;-79
2023/07/21 09:15:27;;;;;;;;;;;;;;;;;;4959078;28;99762;-79
2023/07/21 09:17:53;;;;;;;3.38;1.70;;;;;;;;;;4969954;28;98528;-78
2023/07/21 09:20:20;;;;;;;4.03;1.80;;;;;;;;;;4953377;28;98858;-78
2023/07/21 09:22:49;;;;;;;4.00;2.00;;;;;;;;;;4955737;28;99154;-80
2023/07/21 09:25:20;;;;;;;4.75;1.88;;;;;;;;;;4966092;28;97712;-79
2023/07/21 09:27:57;;;;;;;3.92;1.83;;;;;;;;;;4946329;28;99302;-79
2023/07/21 09:30:24;;;;;;;4.20;1.75;;;;;;;;;;4946358;28;98584;-78
2023/07/21 09:32:55;;;;;;;3.78;2.00;;;;;;;;;;4959805;28;99905;-80
2023/07/21 09:35:22;;;;;;;4.10;1.60;;;;;;;;;;4960804;28;98790;-79
2023/07/21 09:37:50;;;;;;;5.13;1.92;;;;;;;;;;4962456;28;98342;-79
2023/07/21 09:40:17;;;;;;;4.03;1.90;;;;;;;;;;4963639;28;98703;-80
2023/07/21 09:42:44;;;;;;;4.55;2.22;;;;;;;;;;4957626;28;101673;-80
2023/07/21 09:45:11;;;;;;;4.65;1.50;;;;;;;;;;4959128;28;98163;-78
2023/07/21 09:47:38;;;;;;;2.63;1.38;;;;;;;;;;4948254;28;101191;-79
2023/07/21 09:50:10;;;;;;;3.22;1.35;;;;;;;;;;4963752;28;98234;-81
2023/07/21 09:52:37;;;;;;;3.70;1.63;;;;;;;;;;4957750;28;98161;-79
2023/07/21 09:55:09;;;;;;;2.38;1.30;;;;;;;;;;4947289;28;98439;-78
2023/07/21 09:57:45;;;;;;;4.47;1.90;;;;;;;;;;4958511;28;99275;-80
2023/07/21 10:00:14;;;;;;;4.43;1.52;;;;;;;;;;4959057;28;99530;-78
2023/07/21 10:02:42;;;;;;;4.55;1.70;;;;;;;;;;4930442;28;101943;-80
2023/07/21 10:05:11;;;;;;;3.83;1.40;;;;;;;;;;4938753;28;98168;-80
2023/07/21 10:07:39;;;;;;;3.00;1.67;;;;;;;;;;4938004;28;101690;-80
2023/07/21 10:10:06;;;;;;;5.88;2.47;;;;;;;;;;4948641;28;98901;-80
2023/07/21 10:12:32;;;;;;;;;;;;;;;;;;4959478;28;98261;-81
2023/07/21 10:14:59;;;;;;;5.40;2.10;;;;;;;;;;4961657;28;97947;-80
2023/07/21 10:17:26;;;;;;;5.18;2.10;;;;;;;;;;4958934;28;98871;-80
2023/07/21 10:20:05;;;;;;;4.30;2.20;;;;;;;;;;4937810;28;100706;-80
2023/07/21 10:22:32;;;;;;;4.18;2.00;;;;;;;;;;4920985;28;99581;-81
2023/07/21 10:24:59;;;;;;;4.30;1.83;;;;;;;;;;4934713;28;98256;-80
2023/07/21 10:27:26;;;;;;;4.63;2.13;;;;;;;;;;4952772;28;98910;-80
2023/07/21 10:29:56;;;;;;;2.45;1.42;;;;;;;;;;4939477;28;99070;-80
2023/07/21 10:32:24;;;;;;;5.65;2.83;;;;;;;;;;4926982;28;98661;-79
2023/07/21 10:34:51;;;;;;;4.15;1.98;;;;;;;;;;4946997;28;99642;-80
2023/07/21 10:37:18;;;;;;;3.70;1.48;;;;;;;;;;4938475;28;98906;-81
2023/07/21 10:39:52;;;;;;;6.40;2.08;;;;;;;;;;4945178;28;97721;-79
2023/07/21 10:42:18;;;;;;;3.60;1.77;;;;;;;;;;4920787;28;101098;-80
2023/07/21 10:44:47;;;;;;;3.42;1.85;;;;;;;;;;4954710;28;99591;-80
2023/07/21 10:47:15;;;;;;;4.00;1.50;;;;;;;;;;4956426;28;100349;-80
2023/07/21 10:49:43;;;;;;;3.47;1.60;;;;;;;;;;4940554;28;98893;-80
2023/07/21 10:52:10;;;;;;;4.60;1.80;;;;;;;;;;4931935;28;98253;-80
2023/07/21 10:54:36;;;;;;;3.53;1.80;;;;;;;;;;4953891;28;99414;-81
2023/07/21 10:57:03;;;;;;;2.90;1.60;;;;;;;;;;4939989;28;101164;-80
2023/07/21 10:59:32;;;;;;;3.97;1.27;;;;;;;;;;4955136;28;98188;-78
2023/07/21 11:01:58;;;;;;;3.35;1.60;;;;;;;;;;4943533;28;98411;-80
2023/07/21 11:04:25;;;;;;;2.63;1.20;;;;;;;;;;4958892;28;97448;-80
2023/07/21 11:06:56;;;;;;;3.65;1.30;;;;;;;;;;4958238;28;98589;-80
2023/07/21 11:09:23;;;;;;;3.88;1.90;;;;;;;;;;4959603;28;98840;-78
2023/07/21 11:11:50;;;;;;;;;;;;;;;;;;4958006;28;99203;-80
2023/07/21 11:14:18;;;;;;;3.70;1.60;;;;;;;;;;4959641;28;99003;-78
2023/07/21 11:16:47;;;;;;;4.18;1.77;;;;;;;;;;4955947;28;101651;-81
2023/07/21 11:19:17;;;;;;;4.97;1.95;;;;;;;;;;4940005;28;98373;-79
2023/07/21 11:21:44;;;;;;;2.50;1.30;;;;;;;;;;4932128;28;98547;-80
2023/07/21 11:24:11;;;;;;;;;;;;;;;;;;4966352;28;98824;-83
2023/07/21 11:26:38;;;;;;;3.70;1.20;;;;;;;;;;4952653;28;117647;-81
2023/07/21 11:29:06;;;;;;;5.03;1.08;;;;;;;;;;4938840;28;98695;-83
2023/07/21 11:31:33;;;;;;;2.88;1.30;;;;;;;;;;4921007;28;98373;-83
2023/07/21 11:34:01;;;;;;;4.60;1.40;;;;;;;;;;4937835;28;98815;-83
2023/07/21 11:36:29;;;;;;;5.05;1.52;;;;;;;;;;4939377;28;101690;-82
2023/07/21 11:38:59;;;;;;;3.58;1.33;;;;;;;;;;4942745;28;98432;-83
2023/07/21 11:41:32;;;;;;;2.63;1.10;;;;;;;;;;4938013;28;98470;-82
2023/07/21 11:43:59;;;;;;;3.03;1.30;;;;;;;;;;4947920;28;98950;-82
2023/07/21 11:46:26;;;;;;;4.03;1.38;;;;;;;;;;4957617;28;98762;-82
2023/07/21 11:48:54;;;;;;;3.60;1.30;;;;;;;;;;4957313;28;98799;-83
2023/07/21 11:51:22;;;;;;;2.10;1.10;;;;;;;;;;4960900;28;98419;-81
2023/07/21 11:53:49;;;;;;;2.28;1.30;;;;;;;;;;4968727;28;98798;-82
2023/07/21 11:56:16;;;;;;;2.95;1.20;;;;;;;;;;4942740;28;101272;-83
2023/07/21 11:58:43;;;;;;;2.25;1.10;;;;;;;;;;4957469;28;98088;-83
2023/07/21 12:01:10;;;;;;;2.15;1.17;;;;;;;;;;4941086;28;98959;-82
2023/07/21 12:03:37;;;;;;;2.28;1.30;;;;;;;;;;4942535;28;98806;-82
2023/07/21 12:06:04;;;;;;;1.48;1.20;;;;;;;;;;4943642;28;98767;-83
2023/07/21 12:08:32;;;;;;;3.25;1.20;;;;;;;;;;4939120;28;99016;-83
2023/07/21 12:10:58;;;;;;;2.50;1.25;;;;;;;;;;4924114;28;98820;-83
2023/07/21 12:13:25;;;;;;;2.40;1.00;;;;;;;;;;4930008;28;99126;-82
2023/07/21 12:15:52;;;;;;;2.00;1.10;;;;;;;;;;4942124;28;99207;-82
2023/07/21 12:18:19;;;;;;;2.25;1.20;;;;;;;;;;4941963;28;97939;-82
2023/07/21 12:20:46;;;;;;;1.60;1.10;;;;;;;;;;4940756;28;98129;-81
2023/07/21 12:23:12;;;;;;;2.42;1.20;;;;;;;;;;4936640;28;98976;-81
2023/07/21 12:25:42;;;;;;;3.08;1.30;;;;;;;;;;4966445;28;98947;-81
2023/07/21 12:28:08;;;;;;;2.83;1.33;;;;;;;;;;4929405;28;100374;-81
2023/07/21 12:30:35;;;;;;;2.75;1.17;;;;;;;;;;4940808;28;98167;-82
2023/07/21 12:33:02;;;;;;;1.33;1.20;;;;;;;;;;4942168;28;98857;-82
2023/07/21 12:35:29;;;;;;;2.72;1.10;;;;;;;;;;4955717;28;98782;-82
2023/07/21 12:37:55;;;;;;;2.08;1.30;;;;;;;;;;4950853;28;98328;-82
2023/07/21 12:40:22;;;;;;;3.15;1.52;;;;;;;;;;4964053;28;98877;-81
2023/07/21 12:42:48;;;;;;;2.78;1.10;;;;;;;;;;4953352;28;98377;-83
2023/07/21 12:45:15;;;;;;;2.83;1.40;;;;;;;;;;4924312;28;98204;-83
2023/07/21 12:47:41;;;;;;;2.95;1.50;;;;;;;;;;4940684;28;98756;-83
2023/07/21 12:50:08;;;;;;;1.90;1.27;;;;;;;;;;4942967;28;99622;-84
2023/07/21 12:52:35;;;;;;;6.25;2.00;;;;;;;;;;4942364;28;99403;-79
2023/07/21 12:55:01;;;;;;;3.78;1.90;;;;;;;;;;4948034;28;101947;-85
2023/07/21 12:57:28;;;;;;;3.03;1.88;;;;;;;;;;4960103;28;98150;-83
2023/07/21 12:59:54;;;;;;;3.63;1.90;;;;;;;;;;4941628;28;100800;-83
2023/07/21 13:02:21;;;;;;;4.05;2.00;;;;;;;;;;4958858;28;98758;-82
2023/07/21 13:04:48;;;;;;;4.43;2.10;;;;;;;;;;4939049;28;98603;-84
2023/07/21 13:07:15;;;;;;;3.85;1.92;;;;;;;;;;4940734;28;98493;-82
2023/07/21 13:09:41;;;;;;;4.65;2.38;;;;;;;;;;4951970;28;98912;-84
2023/07/21 13:12:08;;;;;;;4.32;2.03;;;;;;;;;;4945516;28;98244;-81
2023/07/21 13:14:35;;;;;;;5.78;2.42;;;;;;;;;;4958832;28;99564;-80
2023/07/21 13:17:03;;;;;;;4.93;2.20;;;;;;;;;;4959827;28;98255;-81
2023/07/21 13:19:30;;;;;;;4.85;2.20;;;;;;;;;;4957156;28;98776;-81
2023/07/21 13:21:56;;;;;;;6.00;2.30;;;;;;;;;;4948085;28;99530;-81
2023/07/21 13:24:24;;;;;;;5.63;2.20;;;;;;;;;;4943487;28;98311;-80
2023/07/21 13:26:51;;;;;;;3.80;1.70;;;;;;;;;;4942179;28;98514;-80
2023/07/21 13:29:17;;;;;;;4.88;2.40;;;;;;;;;;4955673;28;98952;-82
2023/07/21 13:31:44;;;;;;;6.15;1.88;;;;;;;;;;4925151;28;97419;-82
2023/07/21 13:34:10;;;;;;;6.53;2.17;;;;;;;;;;4966176;28;98306;-83
2023/07/21 13:36:37;;;;;;;4.32;1.80;;;;;;;;;;4940047;28;98552;-83
2023/07/21 13:39:04;;;;;;;4.20;1.90;;;;;;;;;;4959944;28;98838;-83
2023/07/21 13:41:32;;;;;;;6.35;1.73;;;;;;;;;;4939519;28;98877;-83
2023/07/21 13:43:59;;;;;;;2.78;1.70;;;;;;;;;;4927741;28;98926;-83
2023/07/21 13:46:26;;;;;;;6.28;2.00;;;;;;;;;;4941498;28;98906;-83
2023/07/21 13:48:53;;;;;;;4.55;1.95;;;;;;;;;;4938971;28;99004;-82
2023/07/21 13:51:20;;;;;;;5.35;2.10;;;;;;;;;;4921177;28;98578;-83
2023/07/21 13:53:46;;;;;;;4.65;1.73;;;;;;;;;;4951145;28;99129;-83
2023/07/21 13:56:13;;;;;;;6.00;2.10;;;;;;;;;;4949491;28;97470;-82
2023/07/21 13:58:40;;;;;;;5.15;2.38;;;;;;;;;;4937577;28;100591;-81
2023/07/21 14:01:06;;;;;;;6.97;2.65;;;;;;;;;;4944839;28;99410;-80
2023/07/21 14:03:33;;;;;;;10.27;2.30;;;;;;;;;;4935971;28;99506;-80
2023/07/21 14:05:59;;;;;;;6.75;2.90;;;;;;;;;;4957160;28;99229;-81
2023/07/21 14:08:28;;;;;;;5.82;2.20;;;;;;;;;;4946485;28;98815;-80
2023/07/21 14:10:55;;;;;;;6.07;2.70;;;;;;;;;;4957520;28;98621;-80
2023/07/21 14:13:21;;;;;;;6.15;2.40;;;;;;;;;;4947833;28;98518;-80
2023/07/21 14:15:48;;;;;;;5.55;2.33;;;;;;;;;;4961930;28;99389;-80
2023/07/21 14:18:14;;;;;;;5.88;2.40;;;;;;;;;;4962123;28;98871;-80
2023/07/21 14:20:41;;;;;;;7.28;2.90;;;;;;;;;;4936948;28;101380;-80
2023/07/21 14:23:08;;;;;;;6.43;2.65;;;;;;;;;;4937551;28;98073;-80
2023/07/21 14:25:35;;;;;;;7.63;3.30;;;;;;;;;;4940127;28;98542;-80
2023/07/21 14:28:01;;;;;;;8.82;3.45;;;;;;;;;;4938968;28;99769;-80
2023/07/21 14:30:29;;;;;;;13.07;4.13;;;;;;;;;;4936074;28;98551;-80
2023/07/21 14:32:56;;;;;;;8.35;3.80;;;;;;;;;;4938509;28;98547;-80
2023/07/21 14:35:23;;;;;;;8.43;4.13;;;;;;;;;;4928615;28;101487;-80
2023/07/21 14:37:50;;;;;;;9.13;4.57;;;;;;;;;;4924680;28;98380;-80
2023/07/21 14:40:17;;;;;;;8.38;4.40;;;;;;;;;;4958455;28;100209;-80
2023/07/21 14:42:44;;;;;;;10.70;5.47;;;;;;;;;;4948915;28;98248;-80
2023/07/21 14:45:11;;;;;;;8.68;4.03;;;;;;;;;;4940089;28;98766;-79
2023/07/21 14:47:37;;;;;;;9.48;4.68;;;;;;;;;;4921277;28;99402;-80
2023/07/21 14:50:04;;;;;;;8.32;4.20;;;;;;;;;;4937272;28;98225;-79
2023/07/21 14:52:31;;;;;;;9.15;4.10;;;;;;;;;;4947424;28;98846;-81
2023/07/21 14:54:58;;;;;;;11.00;5.00;;;;;;;;;;4944520;28;99201;-78
2023/07/21 14:57:25;;;;;;;9.27;4.70;;;;;;;;;;4943121;28;98547;-79
2023/07/21 14:59:52;;;;;;;8.32;4.50;;;;;;;;;;4941493;28;98470;-79
2023/07/21 15:02:19;;;;;;;8.93;4.70;;;;;;;;;;4937365;28;98452;-81
2023/07/21 15:04:46;;;;;;;10.43;4.93;;;;;;;;;;4938863;28;98484;-81
2023/07/21 15:07:13;;;;;;;10.13;5.00;;;;;;;;;;4925056;28;101425;-80
2023/07/21 15:09:40;;;;;;;10.00;4.88;;;;;;;;;;4954597;28;97508;-80
2023/07/21 15:12:07;;;;;;;;;;;;;;;;;;4950468;28;99625;-79
2023/07/21 15:14:34;;;;;;;9.73;4.95;;;;;;;;;;4940151;28;98803;-79
2023/07/21 15:17:01;;;;;;;9.27;4.32;;;;;;;;;;4921250;28;99207;-79
2023/07/21 15:19:29;;;;;;;10.55;4.93;;;;;;;;;;4937999;28;98790;-79
2023/07/21 15:21:56;;;;;;;9.60;4.95;;;;;;;;;;4923553;28;101145;-79
2023/07/21 15:24:22;;;;;;;8.90;4.60;;;;;;;;;;4941712;28;98527;-79